• Join FlightAware (Why Join?)
  • Login
  • US Flag 
01:34AM EDT


 

Airport Tracker/Info


-or-


 

Live Flight TrackerFlight Track Log ✈ UAL4336 ✈ 14-Apr-2013 ✈ KIAH - KBTR

Flight Track Log - Related Links

Times and Time Zones

All times are in EDT time to prevent confusion due to time zone crossing. See the UAL4336 flight status page for this flight to view local times or setup timezone preferences in your user account.

Time Position Orientation Groundspeed Altitude Reporting Facility
EDT Latitude Longitude Course Direction KTS MPH feet Rate Location/Type
09:54AM 29.9661 -95.3456 90° East 150 173 600  Level Houston Center
09:56AM 29.9394 -95.2836 116° Southeast 238 274 2,800 2,040 Climbing Houston Center
09:57AM 29.9522 -95.1892 81° East 265 305 5,400 2,400 Climbing Houston Center
09:58AM 29.9834 -94.8732 90° East  Level FlightAware Approximate
09:58AM 29.9564 -95.1056 87° East 288 331 7,700  Level Houston Center
09:59AM 29.9834 -94.7581 90° East  Level FlightAware Approximate
09:59AM 29.9611 -94.9986 87° East 314 361 10,300  Level Houston Center
10:00AM 29.9833 -94.6431 90° East  Level FlightAware Approximate
10:00AM 29.9689 -94.8892 85° East 333 383 11,500  Level Houston Center
10:01AM 29.9756 -94.7678 86° East 373 429 12,600 1,020 Climbing Houston Center
10:02AM 29.9828 -94.6397 86° East 395 455 13,700 1,020 Climbing Houston Center
10:03AM 29.9892 -94.5083 87° East 409 471 14,700 1,020 Climbing Houston Center
10:04AM 29.9947 -94.3628 87° East 419 482 15,800 1,080 Climbing Houston Center
10:05AM 30.0056 -94.2269 85° East 425 489 17,000 1,260 Climbing Houston Center
10:06AM 30.0219 -94.0911 82° East 429 494 18,400 1,260 Climbing Houston Center
10:07AM 30.0397 -93.9553 81° East 431 496 19,600 1,140 Climbing Houston Center
10:08AM 30.0572 -93.8164 82° East 440 506 20,800 1,320 Climbing Houston Center
10:09AM 30.0764 -93.6481 82° East 446 513 22,300 1,080 Climbing Houston Center
10:10AM 30.0925 -93.5056 83° East 454 522 23,000 300 Climbing Houston Center
10:11AM 30.1106 -93.3581 82° East 472 543 23,000  Level Houston Center
10:12AM 30.1289 -93.2069 82° East 481 554 23,000  Level Houston Center
10:13AM 30.1486 -93.0556 81° East 481 554 23,000 -60 Level Houston Center
10:14AM 30.1536 -92.9103 88° East 457 526 22,900  Descending Houston Center
10:15AM 30.1356 -92.7631 98° East 464 534 23,000 -300 Climbing Houston Center
10:16AM 30.1128 -92.5842 98° East 472 543 22,300 -840 Descending Houston Center
10:17AM 30.0947 -92.4389 98° East 461 531 21,300 -1,080 Descending Houston Center
10:18AM 30.0794 -92.3000 97° East 440 506 20,200 -1,080 Descending Houston Center
10:19AM 30.0619 -92.1611 98° East 438 504 19,200 -660 Descending Houston Center
10:20AM 30.0475 -92.0200 97° East 444 511 18,900 -120 Descending Houston Center
10:21AM 30.0314 -91.8786 97° East 444 511 19,000 -120 Climbing Houston Center
10:22AM 30.0153 -91.7358 97° East 448 516 18,700 -720 Descending Houston Center
10:23AM 30.0011 -91.5972 97° East 443 510 17,600 -1,140 Descending Houston Center
10:24AM 29.9853 -91.4558 97° East 444 511 16,400 -1,500 Descending Houston Center
10:25AM 30.0322 -91.3222 68° East 405 466 14,600 -1,920 Descending Houston Center
10:26AM 30.1247 -91.2858 19° North 362 417 12,500 -1,800 Descending Houston Center
10:27AM 30.2136 -91.2589 15° North 343 395 11,000 -1,920 Descending Houston Center
10:28AM 30.2844 -91.2839 343° North 288 331 8,600 -2,460 Descending Houston Center
10:29AM 30.3514 -91.3158 338° Northwest 269 310 6,000 -2,820 Descending Houston Center
10:30AM 30.4117 -91.2858 23° Northeast 258 297 2,900 -3,060 Descending Houston Center